createdAt,value
2022-08-29T00:00:23.472Z,3.27
2022-08-29T00:03:00.036Z,3.20
2022-08-29T00:05:33.158Z,3.30
2022-08-29T00:08:02.679Z,3.40
2022-08-29T00:10:32.836Z,2.83
2022-08-29T00:13:02.257Z,2.93
2022-08-29T00:15:30.846Z,3.40
2022-08-29T00:18:00.932Z,3.33
2022-08-29T00:20:34.549Z,3.07
2022-08-29T00:23:04.256Z,3.10
2022-08-29T00:25:33.531Z,2.80
2022-08-29T00:28:02.257Z,3.37
2022-08-29T00:30:31.161Z,3.23
2022-08-29T00:32:59.682Z,3.13
2022-08-29T00:35:32.790Z,3.33
2022-08-29T00:38:01.897Z,2.87
2022-08-29T00:40:34.550Z,2.97
2022-08-29T00:43:03.551Z,2.87
2022-08-29T00:45:33.305Z,3.00
2022-08-29T00:48:06.250Z,2.87
2022-08-29T00:50:39.968Z,2.70
2022-08-29T00:53:12.880Z,3.20
2022-08-29T00:55:42.436Z,3.17
2022-08-29T00:58:25.911Z,3.13
2022-08-29T01:00:54.771Z,2.70
2022-08-29T01:03:23.290Z,2.97
2022-08-29T01:05:53.492Z,3.20
2022-08-29T01:08:22.006Z,2.63
2022-08-29T01:11:08.012Z,2.47
2022-08-29T01:13:42.792Z,2.60
2022-08-29T01:16:13.107Z,2.17
2022-08-29T01:18:45.304Z,2.60
2022-08-29T01:21:24.905Z,2.37
2022-08-29T01:24:00.657Z,2.60
2022-08-29T01:26:31.507Z,2.57
2022-08-29T01:29:00.327Z,2.93
2022-08-29T01:31:56.068Z,2.90
2022-08-29T01:34:28.764Z,3.20
2022-08-29T01:36:59.351Z,2.60
2022-08-29T01:39:30.770Z,2.50
2022-08-29T01:42:03.857Z,3.27
2022-08-29T01:44:32.667Z,2.80
2022-08-29T01:47:03.348Z,2.80
2022-08-29T01:49:33.164Z,2.50
2022-08-29T01:52:03.252Z,2.60
2022-08-29T01:54:32.396Z,2.80
2022-08-29T01:57:02.932Z,2.60
2022-08-29T01:59:32.589Z,2.90
2022-08-29T02:02:05.566Z,2.50
2022-08-29T02:04:34.352Z,3.03
2022-08-29T02:07:03.072Z,2.60
2022-08-29T02:09:31.685Z,2.87
2022-08-29T02:12:07.061Z,3.10
2022-08-29T02:14:36.282Z,2.10
2022-08-29T02:17:07.130Z,2.50
2022-08-29T02:19:36.963Z,2.77
2022-08-29T02:22:06.071Z,2.80
2022-08-29T02:24:34.622Z,2.40
2022-08-29T02:27:05.354Z,2.17
2022-08-29T02:29:37.739Z,2.70
2022-08-29T02:32:08.550Z,2.67
2022-08-29T02:34:38.190Z,2.30
2022-08-29T02:37:07.488Z,2.20
2022-08-29T02:39:36.044Z,2.53
2022-08-29T02:42:06.925Z,2.73
2022-08-29T02:44:35.555Z,3.60
2022-08-29T02:47:04.192Z,2.63
2022-08-29T02:49:32.699Z,2.57
2022-08-29T02:52:06.575Z,2.60
2022-08-29T02:54:35.258Z,2.67
2022-08-29T02:57:05.459Z,2.40
2022-08-29T02:59:34.011Z,2.20
2022-08-29T03:02:02.716Z,2.37
2022-08-29T03:04:31.136Z,2.43
2022-08-29T03:06:59.589Z,2.90
2022-08-29T03:09:28.059Z,3.10
2022-08-29T03:11:56.664Z,3.23
2022-08-29T03:14:26.977Z,3.70
2022-08-29T03:16:55.355Z,3.53
2022-08-29T03:19:23.975Z,3.27
2022-08-29T03:21:52.580Z,3.40
2022-08-29T03:24:26.186Z,3.80
2022-08-29T03:26:56.706Z,3.77
2022-08-29T03:29:26.961Z,3.67
2022-08-29T03:31:58.328Z,3.73
2022-08-29T03:34:28.343Z,3.60
2022-08-29T03:36:57.051Z,3.77
2022-08-29T03:39:25.922Z,3.70
2022-08-29T03:41:54.638Z,3.93
2022-08-29T03:44:24.111Z,3.73
2022-08-29T03:46:54.530Z,3.93
2022-08-29T03:49:23.046Z,3.83
2022-08-29T03:51:51.507Z,3.90
2022-08-29T03:54:20.159Z,3.70
2022-08-29T03:56:49.049Z,3.67
2022-08-29T03:59:19.047Z,3.37
2022-08-29T04:01:48.506Z,3.70
2022-08-29T04:04:33.486Z,3.70
2022-08-29T04:07:02.199Z,3.43
2022-08-29T04:09:30.900Z,3.60
2022-08-29T04:12:00.066Z,3.10
2022-08-29T04:14:29.528Z,3.50
2022-08-29T04:16:58.080Z,3.30
2022-08-29T04:19:27.979Z,3.43
2022-08-29T04:21:57.168Z,3.30
2022-08-29T04:24:26.175Z,3.20
2022-08-29T04:26:54.692Z,3.00
2022-08-29T04:29:23.483Z,3.30
2022-08-29T04:31:51.959Z,3.30
2022-08-29T04:34:20.846Z,2.83
2022-08-29T04:36:50.687Z,3.10
2022-08-29T04:39:20.507Z,3.60
2022-08-29T04:41:49.039Z,3.33
2022-08-29T04:44:17.545Z,4.43
2022-08-29T04:46:46.032Z,3.97
2022-08-29T04:49:14.544Z,3.93
2022-08-29T04:51:43.205Z,4.30
2022-08-29T04:54:13.031Z,4.70
2022-08-29T04:56:47.186Z,4.43
2022-08-29T04:59:16.922Z,3.97
2022-08-29T05:01:47.100Z,4.50
2022-08-29T05:04:15.583Z,3.90
2022-08-29T05:06:44.027Z,3.47
2022-08-29T05:09:13.971Z,3.50
2022-08-29T05:11:42.780Z,3.90
2022-08-29T05:14:11.603Z,4.53
2022-08-29T05:16:40.815Z,5.10
2022-08-29T05:19:11.683Z,7.40
2022-08-29T05:21:40.911Z,6.60
2022-08-29T05:24:12.318Z,9.10
2022-08-29T05:26:45.308Z,11.27
2022-08-29T05:29:14.777Z,7.40
2022-08-29T05:31:44.683Z,7.70
2022-08-29T05:34:31.994Z,8.27
2022-08-29T05:37:04.203Z,6.43
2022-08-29T05:39:32.888Z,6.27
2022-08-29T05:42:03.315Z,7.27
2022-08-29T05:44:35.168Z,5.87
2022-08-29T05:47:05.127Z,4.83
2022-08-29T05:49:33.618Z,4.33
2022-08-29T05:52:02.037Z,4.07
2022-08-29T05:54:33.243Z,3.90
2022-08-29T05:57:03.358Z,3.83
2022-08-29T05:59:31.787Z,3.30
2022-08-29T06:02:02.262Z,3.03
2022-08-29T06:04:30.814Z,3.33
2022-08-29T06:06:59.556Z,3.77
2022-08-29T06:09:28.773Z,3.20
2022-08-29T06:11:58.479Z,3.23
2022-08-29T06:14:28.881Z,2.77
2022-08-29T06:16:57.331Z,2.57
2022-08-29T06:19:26.143Z,2.53
2022-08-29T06:21:56.316Z,2.90
2022-08-29T06:24:24.750Z,2.73
2022-08-29T06:26:53.335Z,2.50
2022-08-29T06:29:21.840Z,2.70
2022-08-29T06:31:51.666Z,2.67
2022-08-29T06:34:20.247Z,2.80
2022-08-29T06:36:48.685Z,2.97
2022-08-29T06:39:17.406Z,2.57
2022-08-29T06:41:46.011Z,3.83
2022-08-29T06:44:14.483Z,3.23
2022-08-29T06:46:44.827Z,3.63
2022-08-29T06:49:16.615Z,3.67
2022-08-29T06:51:49.380Z,3.30
2022-08-29T06:54:19.360Z,3.73
2022-08-29T06:56:48.526Z,3.67
2022-08-29T06:59:17.044Z,3.50
2022-08-29T07:01:47.492Z,3.40
2022-08-29T07:04:20.715Z,3.90
2022-08-29T07:06:50.132Z,3.90
2022-08-29T07:09:19.075Z,3.87
2022-08-29T07:11:47.517Z,3.53
2022-08-29T07:14:16.109Z,3.70
2022-08-29T07:16:44.609Z,3.40
2022-08-29T07:19:13.011Z,3.57
2022-08-29T07:21:42.879Z,5.23
2022-08-29T07:24:11.541Z,3.10
2022-08-29T07:26:43.986Z,9.13
2022-08-29T07:29:16.160Z,3.30
2022-08-29T07:31:45.001Z,4.23
2022-08-29T07:34:13.475Z,5.17
2022-08-29T07:36:43.579Z,3.57
2022-08-29T07:39:14.984Z,2.80
2022-08-29T07:41:45.050Z,2.90
2022-08-29T07:44:14.892Z,2.73
2022-08-29T07:46:44.281Z,2.77
2022-08-29T07:49:12.923Z,3.17
2022-08-29T07:51:44.668Z,3.30
2022-08-29T07:54:16.715Z,3.10
2022-08-29T07:56:46.096Z,2.90
2022-08-29T07:59:15.220Z,2.67
2022-08-29T08:01:43.958Z,2.40
2022-08-29T08:04:13.645Z,3.10
2022-08-29T08:06:45.271Z,2.80
2022-08-29T08:09:15.371Z,6.20
2022-08-29T08:11:44.339Z,3.20
2022-08-29T08:14:13.860Z,4.23
2022-08-29T08:16:44.104Z,3.10
2022-08-29T08:19:14.250Z,2.80
2022-08-29T08:21:49.311Z,2.60
2022-08-29T08:24:19.993Z,2.87
2022-08-29T08:26:49.668Z,4.90
2022-08-29T08:29:19.057Z,4.27
2022-08-29T08:31:49.560Z,2.77
2022-08-29T08:34:19.017Z,2.70
2022-08-29T08:36:48.871Z,3.87
2022-08-29T08:39:17.341Z,3.27
2022-08-29T08:41:53.062Z,4.17
2022-08-29T08:44:49.530Z,2.70
2022-08-29T08:47:26.076Z,2.57
2022-08-29T08:50:00.108Z,3.30
2022-08-29T08:52:38.677Z,2.47
2022-08-29T08:55:21.339Z,2.30
2022-08-29T08:58:00.139Z,2.60
2022-08-29T09:00:32.930Z,2.50
2022-08-29T09:03:09.774Z,2.93
2022-08-29T09:05:50.850Z,2.20
2022-08-29T09:08:30.726Z,2.50
2022-08-29T09:11:04.250Z,2.30
2022-08-29T09:13:48.020Z,2.47
2022-08-29T09:16:25.019Z,2.80
2022-08-29T09:18:54.668Z,2.30
2022-08-29T09:21:40.546Z,2.60
2022-08-29T09:24:18.393Z,2.53
2022-08-29T09:26:46.785Z,2.87
2022-08-29T09:29:21.099Z,2.57
2022-08-29T09:32:08.486Z,2.50
2022-08-29T09:35:04.879Z,2.70
2022-08-29T09:37:32.047Z,2.70
2022-08-29T09:40:09.945Z,3.27
2022-08-29T09:42:42.778Z,3.40
2022-08-29T09:45:19.971Z,2.93
2022-08-29T09:47:48.375Z,3.20
2022-08-29T09:50:24.617Z,4.27
2022-08-29T09:52:55.705Z,4.47
2022-08-29T09:55:32.523Z,3.93
2022-08-29T09:58:05.553Z,3.97
2022-08-29T10:00:35.966Z,4.80
2022-08-29T10:03:07.949Z,5.00
2022-08-29T10:05:44.661Z,3.40
2022-08-29T10:08:35.063Z,4.70
2022-08-29T10:11:07.205Z,7.37
2022-08-29T10:13:52.278Z,6.60
2022-08-29T10:16:34.317Z,4.17
2022-08-29T10:19:06.010Z,4.10
2022-08-29T10:21:41.555Z,3.80
2022-08-29T10:24:21.839Z,4.73
2022-08-29T10:27:00.765Z,6.85
2022-08-29T10:29:48.267Z,3.90
2022-08-29T10:32:29.440Z,4.38
2022-08-29T10:35:07.785Z,5.72
2022-08-29T10:37:47.951Z,3.85
2022-08-29T10:40:25.668Z,4.60
2022-08-29T10:43:17.469Z,3.78
2022-08-29T10:45:57.822Z,3.83
2022-08-29T10:48:31.028Z,3.63
2022-08-29T10:51:14.285Z,3.67
2022-08-29T10:53:50.691Z,4.43
2022-08-29T10:56:23.883Z,4.05
2022-08-29T10:59:04.288Z,3.83
2022-08-29T11:01:41.910Z,4.53
2022-08-29T11:04:18.540Z,4.20
2022-08-29T11:06:54.145Z,3.40
2022-08-29T11:09:27.572Z,3.38
2022-08-29T11:12:06.956Z,3.40
2022-08-29T11:14:42.119Z,3.80
2022-08-29T11:17:14.900Z,3.40
2022-08-29T11:19:53.932Z,3.38
2022-08-29T11:22:27.204Z,3.50
2022-08-29T11:25:04.207Z,3.65
2022-08-29T11:27:39.708Z,3.40
2022-08-29T11:30:17.748Z,3.45
2022-08-29T11:33:00.337Z,3.65
2022-08-29T11:35:40.359Z,3.85
2022-08-29T11:38:48.380Z,3.53
2022-08-29T11:41:30.248Z,3.00
2022-08-29T11:44:15.328Z,3.50
2022-08-29T11:46:49.401Z,3.78
2022-08-29T11:49:44.401Z,4.00
2022-08-29T11:52:22.462Z,3.30
2022-08-29T11:55:16.379Z,3.20
2022-08-29T11:57:53.864Z,3.30
2022-08-29T12:00:35.895Z,3.30
2022-08-29T12:03:28.302Z,3.15
2022-08-29T12:06:02.397Z,3.55
2022-08-29T12:08:38.219Z,3.75
2022-08-29T12:11:07.681Z,3.50
2022-08-29T12:14:03.634Z,3.17
2022-08-29T12:16:49.801Z,3.20
2022-08-29T12:19:48.784Z,3.92
2022-08-29T12:22:53.764Z,3.38
2022-08-29T12:25:44.961Z,3.58
2022-08-29T12:28:39.049Z,3.08
2022-08-29T12:31:13.140Z,3.20
2022-08-29T12:33:56.669Z,3.20
2022-08-29T12:36:38.293Z,3.70
2022-08-29T12:39:23.993Z,3.50
2022-08-29T12:42:13.698Z,3.30
2022-08-29T12:44:44.490Z,3.47
2022-08-29T12:47:15.377Z,3.55
2022-08-29T12:49:50.863Z,3.20
2022-08-29T12:52:26.860Z,5.90
2022-08-29T12:54:56.770Z,3.95
2022-08-29T12:57:30.776Z,3.90
2022-08-29T13:00:00.437Z,3.75
2022-08-29T13:02:32.519Z,3.30
2022-08-29T13:05:01.171Z,3.08
2022-08-29T13:07:31.648Z,3.00
2022-08-29T13:10:02.541Z,3.22
2022-08-29T13:12:33.524Z,3.45
2022-08-29T14:06:13.551Z,4.95
2022-08-29T14:08:45.146Z,3.97
2022-08-29T14:11:14.200Z,3.92
2022-08-29T14:13:42.976Z,3.78
2022-08-29T14:16:11.739Z,3.47
2022-08-29T14:18:40.339Z,3.85
2022-08-29T14:21:10.503Z,3.22
2022-08-29T14:23:38.980Z,3.45
2022-08-29T14:26:07.744Z,3.70
2022-08-29T14:28:40.010Z,3.38
2022-08-29T14:31:10.105Z,3.70
2022-08-29T14:33:38.576Z,3.50
2022-08-29T14:36:07.765Z,3.05
2022-08-29T14:38:37.623Z,3.10
2022-08-29T14:41:06.007Z,9.75
2022-08-29T14:43:39.262Z,10.75
2022-08-29T14:46:08.589Z,4.20
2022-08-29T14:48:37.017Z,5.65
2022-08-29T14:51:05.528Z,3.30
2022-08-29T14:53:37.821Z,3.25
2022-08-29T14:56:46.938Z,3.35
2022-08-29T14:59:14.268Z,3.13
2022-08-29T15:01:43.069Z,3.17
2022-08-29T15:04:11.620Z,3.55
2022-08-29T15:06:42.629Z,3.40
2022-08-29T15:09:11.160Z,3.13
2022-08-29T15:11:40.939Z,3.30
2022-08-29T15:14:10.234Z,3.40
2022-08-29T15:16:39.118Z,3.28
2022-08-29T15:21:56.072Z,3.60
2022-08-29T15:24:25.427Z,3.30
2022-08-29T15:27:00.127Z,3.50
2022-08-29T15:29:28.972Z,3.72
2022-08-29T15:31:58.136Z,3.33
2022-08-29T15:34:27.581Z,3.30
2022-08-29T15:36:57.708Z,3.83
2022-08-29T15:39:27.991Z,4.63
2022-08-29T15:41:57.453Z,3.95
2022-08-29T15:44:29.039Z,3.75
2022-08-29T15:46:57.689Z,3.30
2022-08-29T15:49:26.951Z,3.30
2022-08-29T15:51:56.099Z,3.45
2022-08-29T15:54:26.480Z,4.93
2022-08-29T15:56:55.631Z,4.72
2022-08-29T15:59:41.203Z,4.28
2022-08-29T16:02:14.569Z,3.40
2022-08-29T16:04:47.360Z,3.28
2022-08-29T16:07:16.915Z,3.30
2022-08-29T16:09:46.095Z,3.30
2022-08-29T16:12:14.713Z,3.25
2022-08-29T16:15:00.423Z,2.95
2022-08-29T16:17:31.669Z,5.93
2022-08-29T16:20:02.512Z,5.90
2022-08-29T16:22:32.422Z,3.80
2022-08-29T16:25:01.407Z,3.38
2022-08-29T16:27:29.843Z,3.45
2022-08-29T16:29:58.729Z,3.35
2022-08-29T16:32:27.279Z,3.42
2022-08-29T16:34:58.698Z,3.42
2022-08-29T16:37:27.192Z,3.20
2022-08-29T16:39:56.109Z,3.60
2022-08-29T16:42:29.943Z,3.83
2022-08-29T16:44:59.845Z,3.60
2022-08-29T16:47:28.752Z,3.08
2022-08-29T16:49:58.616Z,3.40
2022-08-29T16:52:27.131Z,3.60
2022-08-29T16:54:58.855Z,4.00
2022-08-29T16:57:27.286Z,3.70
2022-08-29T16:59:55.665Z,3.60
2022-08-29T17:02:24.844Z,3.78
2022-08-29T17:04:53.377Z,3.50
2022-08-29T17:07:32.425Z,3.53
2022-08-29T17:10:01.739Z,3.60
2022-08-29T17:12:29.959Z,3.85
2022-08-29T17:14:57.987Z,3.50
2022-08-29T17:17:26.664Z,3.42
2022-08-29T17:19:55.125Z,4.82
2022-08-29T17:22:25.065Z,4.03
2022-08-29T17:24:53.631Z,3.90
2022-08-29T17:27:23.933Z,3.78
2022-08-29T17:29:54.187Z,4.63
2022-08-29T17:32:22.964Z,4.97
2022-08-29T17:34:51.471Z,3.90
2022-08-29T17:37:19.932Z,4.88
2022-08-29T17:39:50.018Z,4.07
2022-08-29T17:42:18.521Z,4.88
2022-08-29T17:44:48.208Z,4.07
2022-08-29T17:47:16.972Z,4.60
2022-08-29T17:49:45.828Z,5.07
2022-08-29T17:52:14.443Z,5.78
2022-08-29T17:54:42.997Z,5.07
2022-08-29T17:57:12.967Z,5.20
2022-08-29T17:59:42.532Z,5.07
2022-08-29T18:02:11.114Z,4.55
2022-08-29T18:04:39.579Z,5.90
2022-08-29T18:07:07.995Z,4.47
2022-08-29T18:09:36.419Z,4.88
2022-08-29T18:12:05.396Z,4.30
2022-08-29T18:14:35.361Z,5.05
2022-08-29T18:17:03.950Z,4.50
2022-08-29T18:19:32.488Z,4.20
2022-08-29T18:22:01.017Z,3.80
2022-08-29T18:24:29.561Z,3.72
2022-08-29T18:26:58.104Z,3.70
2022-08-29T18:29:26.746Z,3.97
2022-08-29T18:31:56.664Z,6.72
2022-08-29T18:34:26.029Z,7.90
2022-08-29T18:36:54.628Z,6.60
2022-08-29T18:39:23.055Z,6.32
2022-08-29T18:41:52.159Z,6.88
2022-08-29T18:44:20.624Z,6.15
2022-08-29T18:46:53.179Z,5.97
2022-08-29T18:49:43.780Z,5.18
2022-08-29T18:52:12.692Z,5.13
2022-08-29T18:54:41.468Z,4.47
2022-08-29T18:57:11.613Z,4.53
2022-08-29T18:59:41.073Z,4.85
2022-08-29T19:02:11.684Z,4.80
2022-08-29T19:04:42.171Z,4.20
2022-08-29T19:07:10.604Z,4.70
2022-08-29T19:09:39.099Z,4.20
2022-08-29T19:12:07.631Z,4.47
2022-08-29T19:14:45.811Z,4.80
2022-08-29T19:17:14.616Z,4.63
2022-08-29T19:20:02.795Z,4.87
2022-08-29T19:22:38.762Z,4.37
2022-08-29T19:25:09.148Z,4.77
2022-08-29T19:27:45.135Z,4.80
2022-08-29T19:30:16.100Z,4.60
2022-08-29T19:32:45.980Z,5.37
2022-08-29T19:35:16.504Z,4.30
2022-08-29T19:37:45.481Z,4.90
2022-08-29T19:40:16.094Z,5.40
2022-08-29T19:42:45.950Z,4.97
2022-08-29T19:45:19.196Z,4.90
2022-08-29T19:47:49.454Z,5.17
2022-08-29T19:50:22.652Z,5.17
2022-08-29T19:52:51.153Z,4.73
2022-08-29T19:55:21.733Z,4.67
2022-08-29T19:57:52.883Z,5.20
2022-08-29T20:00:24.895Z,4.80
2022-08-29T20:02:54.037Z,5.00
2022-08-29T20:05:24.503Z,5.27
2022-08-29T20:07:53.536Z,5.13
2022-08-29T20:10:24.997Z,5.27
2022-08-29T20:12:55.044Z,4.93
2022-08-29T20:15:30.583Z,4.90
2022-08-29T20:18:00.195Z,4.60
2022-08-29T20:20:34.487Z,4.60
2022-08-29T20:23:03.195Z,4.70
2022-08-29T20:25:33.584Z,4.87
2022-08-29T20:28:03.046Z,4.70
2022-08-29T20:30:35.529Z,5.07
2022-08-29T20:33:04.726Z,4.70
2022-08-29T20:35:53.756Z,5.07
2022-08-29T20:38:22.212Z,5.00
2022-08-29T20:40:50.653Z,5.03
2022-08-29T20:43:20.404Z,4.80
2022-08-29T20:45:49.656Z,5.23
2022-08-29T20:48:18.261Z,4.80
2022-08-29T20:50:48.657Z,5.20
2022-08-29T20:53:32.464Z,5.50
2022-08-29T20:56:05.709Z,4.90
2022-08-29T20:58:35.598Z,4.83
2022-08-29T21:01:04.749Z,4.57
2022-08-29T21:03:50.769Z,5.20
2022-08-29T21:06:23.573Z,4.77
2022-08-29T21:08:52.315Z,4.53
2022-08-29T21:11:21.012Z,4.30
2022-08-29T21:13:53.337Z,4.70
2022-08-29T21:16:32.016Z,4.40
2022-08-29T21:19:00.913Z,4.33
2022-08-29T21:21:30.796Z,4.63
2022-08-29T21:23:59.283Z,4.60
2022-08-29T21:26:27.728Z,4.60
2022-08-29T21:28:56.444Z,4.23
2022-08-29T21:31:25.049Z,4.17
2022-08-29T21:33:53.632Z,4.57
2022-08-29T21:36:25.837Z,4.73
2022-08-29T21:38:58.244Z,4.70
2022-08-29T21:41:27.577Z,4.83
2022-08-29T21:43:56.465Z,5.17
2022-08-29T21:46:27.002Z,4.80
2022-08-29T21:48:57.105Z,4.67
2022-08-29T21:51:26.718Z,4.50
2022-08-29T21:53:58.352Z,5.00
2022-08-29T21:56:29.576Z,4.77
2022-08-29T21:58:58.330Z,5.30
2022-08-29T22:01:30.439Z,4.80
2022-08-29T22:04:00.647Z,5.10
2022-08-29T22:06:30.138Z,4.93
2022-08-29T22:09:00.276Z,4.73
2022-08-29T22:11:37.550Z,5.13
2022-08-29T22:14:07.309Z,5.07
2022-08-29T22:16:36.967Z,5.00
2022-08-29T22:19:08.785Z,4.83
2022-08-29T22:21:39.517Z,4.20
2022-08-29T22:24:10.617Z,5.10
2022-08-29T22:26:40.025Z,5.10
2022-08-29T22:29:09.832Z,5.13
2022-08-29T22:31:42.624Z,6.20
2022-08-29T22:34:11.508Z,5.70
2022-08-29T22:36:39.972Z,5.40
2022-08-29T22:39:09.931Z,5.60
2022-08-29T22:41:38.550Z,5.20
2022-08-29T22:46:56.327Z,5.93
2022-08-29T22:49:27.620Z,5.87
2022-08-29T22:52:01.649Z,6.90
2022-08-29T22:54:37.711Z,5.07
2022-08-29T22:57:09.632Z,4.93
2022-08-29T22:59:39.441Z,4.33
2022-08-29T23:02:08.941Z,5.17
2022-08-29T23:04:37.807Z,4.73
2022-08-29T23:07:07.329Z,5.00
2022-08-29T23:09:37.504Z,5.07
2022-08-29T23:12:07.406Z,4.67
2022-08-29T23:14:37.448Z,5.20
2022-08-29T23:17:06.527Z,5.70
2022-08-29T23:19:35.520Z,5.00
2022-08-29T23:22:04.743Z,4.60
2022-08-29T23:24:33.876Z,4.83
2022-08-29T23:27:03.929Z,5.00
2022-08-29T23:29:34.140Z,5.07
2022-08-29T23:32:10.343Z,4.80
2022-08-29T23:34:38.943Z,4.80
2022-08-29T23:37:07.472Z,5.23
2022-08-29T23:39:36.064Z,4.90
2022-08-29T23:42:06.815Z,4.53
2022-08-29T23:44:35.780Z,5.00
2022-08-29T23:47:04.221Z,5.00
2022-08-29T23:49:32.608Z,5.00
2022-08-29T23:52:01.144Z,4.97
2022-08-29T23:54:31.350Z,5.30
2022-08-29T23:57:00.053Z,5.27
2022-08-29T23:59:43.788Z,5.20
